DEPPU EDWE-EDWR

Flight info

Callsign DEPPU
Flight time 0h 8m
Altitude 2500
Route VFR
Aircraft B36T/L-S/S

Departure

Time 2026-05-05 07:51
Airport Emden Airport (EDWE)

Arrival

Time 2026-05-05 08:00
Airport Borkum Airport (EDWR)
Time Latitude Longitude Altitude Speed Heading
2026-05-05 07:45 53.38981 7.23170 3 ft 0 kts 147°
2026-05-05 07:48 53.38978 7.23153 4 ft 3 kts 357°
2026-05-05 07:48 53.38998 7.23068 4 ft 0 kts 335°
2026-05-05 07:48 53.38993 7.23068 4 ft 6 kts 231°
2026-05-05 07:48 53.38942 7.22853 4 ft 32 kts 253°
2026-05-05 07:49 53.38945 7.22577 2 ft 15 kts 318°
2026-05-05 07:49 53.38976 7.22366 0 ft 31 kts 253°
2026-05-05 07:49 53.38919 7.22064 1 ft 18 kts 252°
2026-05-05 07:49 53.38903 7.21971 1 ft 0 kts 259°
2026-05-05 07:50 53.38903 7.21970 1 ft 0 kts 259°
2026-05-05 07:50 53.38910 7.21826 4 ft 16 kts 279°
2026-05-05 07:51 53.38940 7.21777 5 ft 7 kts 46°
2026-05-05 07:51 53.39024 7.22200 -2 ft 83 kts 73°
2026-05-05 07:51 53.39251 7.23480 73 ft 139 kts 70°
2026-05-05 07:51 53.39592 7.24390 1487 ft 89 kts 12°
2026-05-05 07:52 53.40284 7.23671 1848 ft 143 kts 322°
2026-05-05 07:52 53.41056 7.22551 2394 ft 149 kts 328°
2026-05-05 07:52 53.41870 7.21569 3228 ft 143 kts 330°
2026-05-05 07:52 53.42732 7.20622 3859 ft 153 kts 328°
2026-05-05 07:53 53.43582 7.19500 4452 ft 157 kts 319°
2026-05-05 07:53 53.44119 7.18712 4904 ft 152 kts 314°
2026-05-05 07:53 53.44676 7.17231 5603 ft 149 kts 294°
2026-05-05 07:53 53.45132 7.15681 6280 ft 150 kts 294°
2026-05-05 07:54 53.45650 7.14112 6802 ft 155 kts 294°
2026-05-05 07:54 53.46172 7.12544 7352 ft 158 kts 296°
2026-05-05 07:54 53.46725 7.10868 7461 ft 163 kts 296°
2026-05-05 07:54 53.47276 7.09167 7453 ft 169 kts 295°
2026-05-05 07:55 53.47825 7.07405 7432 ft 169 kts 295°
2026-05-05 07:55 53.48374 7.05669 7446 ft 167 kts 294°
2026-05-05 07:55 53.48908 7.03936 7443 ft 167 kts 294°
2026-05-05 07:55 53.49435 7.02217 7446 ft 167 kts 294°
2026-05-05 07:56 53.49959 7.00465 7468 ft 169 kts 294°
2026-05-05 07:56 53.50482 6.98690 7517 ft 169 kts 292°
2026-05-05 07:56 53.50993 6.96908 7544 ft 170 kts 292°
2026-05-05 07:56 53.51502 6.95103 7527 ft 172 kts 292°
2026-05-05 07:57 53.52006 6.93261 7511 ft 174 kts 291°
2026-05-05 07:57 53.52496 6.91445 7262 ft 163 kts 293°
2026-05-05 07:57 53.52990 6.89845 5864 ft 152 kts 294°
2026-05-05 07:57 53.53501 6.88261 4167 ft 157 kts 297°
2026-05-05 07:58 53.54014 6.86623 2586 ft 156 kts 302°
2026-05-05 07:58 53.54533 6.84999 1211 ft 169 kts 301°
2026-05-05 07:58 53.55064 6.83186 891 ft 170 kts 299°
2026-05-05 07:58 53.55560 6.81395 858 ft 168 kts 300°
2026-05-05 07:59 53.56058 6.79619 816 ft 168 kts 300°
2026-05-05 07:59 53.56570 6.77852 718 ft 168 kts 302°
2026-05-05 07:59 53.57102 6.76184 580 ft 156 kts 309°
2026-05-05 07:59 53.57790 6.74799 363 ft 153 kts 318°
2026-05-05 08:00 53.58483 6.73455 150 ft 152 kts 315°
2026-05-05 08:00 53.59040 6.72361 21 ft 97 kts 315°
2026-05-05 08:00 53.59347 6.71749 5 ft 39 kts 309°
2026-05-05 08:00 53.59399 6.71577 5 ft 10 kts 218°
2026-05-05 08:01 53.59358 6.71521 6 ft 1 kts 215°
2026-05-05 08:01 53.59356 6.71511 6 ft 1 kts 287°
2026-05-05 08:01 53.59408 6.71403 6 ft 23 kts 307°
2026-05-05 08:01 53.59549 6.71122 7 ft 38 kts 310°
2026-05-05 08:02 53.59686 6.70840 8 ft 26 kts 310°
2026-05-05 08:02 53.59753 6.70585 7 ft 23 kts 249°
2026-05-05 08:02 53.59745 6.70396 7 ft 7 kts 322°
2026-05-05 08:02 53.59789 6.70251 7 ft 17 kts 239°
2026-05-05 08:03 53.59773 6.70206 7 ft 0 kts 236°
2026-05-05 08:03 53.59762 6.70226 7 ft 0 kts 66°
2026-05-05 08:03 53.59780 6.70275 7 ft 0 kts 59°